sensor_id;sensor_type;location;lat;lon;timestamp;P1;durP1;ratioP1;P2;durP2;ratioP2
69917;SDS011;57203;42.672;23.334;2024-01-16T00:00:36;15.9;;;10.1;;
69917;SDS011;57203;42.672;23.334;2024-01-16T00:02:37;16.9;;;10.3;;
69917;SDS011;57203;42.672;23.334;2024-01-16T00:04:37;19.3;;;11.8;;
69917;SDS011;57203;42.672;23.334;2024-01-16T00:05:37;19.3;;;9.8;;
69917;SDS011;57203;42.672;23.334;2024-01-16T00:06:38;17.1;;;10.7;;
69917;SDS011;57203;42.672;23.334;2024-01-16T00:07:38;17.3;;;10.6;;
69917;SDS011;57203;42.672;23.334;2024-01-16T00:09:38;17.1;;;10.2;;
69917;SDS011;57203;42.672;23.334;2024-01-16T00:10:38;22.4;;;12.8;;
69917;SDS011;57203;42.672;23.334;2024-01-16T00:11:39;22.4;;;14.7;;
69917;SDS011;57203;42.672;23.334;2024-01-16T00:12:38;23.6;;;11.6;;
69917;SDS011;57203;42.672;23.334;2024-01-16T00:13:38;20.7;;;10.4;;
69917;SDS011;57203;42.672;23.334;2024-01-16T00:15:39;18.4;;;10.6;;
69917;SDS011;57203;42.672;23.334;2024-01-16T00:16:41;17.0;;;10.3;;
69917;SDS011;57203;42.672;23.334;2024-01-16T00:17:39;15.6;;;10.8;;
69917;SDS011;57203;42.672;23.334;2024-01-16T00:18:39;18.5;;;10.2;;
69917;SDS011;57203;42.672;23.334;2024-01-16T00:19:39;17.7;;;10.4;;
69917;SDS011;57203;42.672;23.334;2024-01-16T00:20:40;17.3;;;11.7;;
69917;SDS011;57203;42.672;23.334;2024-01-16T00:21:40;19.6;;;11.5;;
69917;SDS011;57203;42.672;23.334;2024-01-16T00:22:40;20.9;;;11.7;;
69917;SDS011;57203;42.672;23.334;2024-01-16T00:23:40;20.9;;;11.2;;
69917;SDS011;57203;42.672;23.334;2024-01-16T00:24:40;20.6;;;10.7;;
69917;SDS011;57203;42.672;23.334;2024-01-16T00:25:40;19.6;;;9.5;;
69917;SDS011;57203;42.672;23.334;2024-01-16T00:26:41;15.5;;;8.4;;
69917;SDS011;57203;42.672;23.334;2024-01-16T00:27:41;13.6;;;9.2;;
69917;SDS011;57203;42.672;23.334;2024-01-16T00:28:43;14.7;;;9.9;;
69917;SDS011;57203;42.672;23.334;2024-01-16T00:30:41;17.4;;;9.7;;
69917;SDS011;57203;42.672;23.334;2024-01-16T00:31:41;16.8;;;9.5;;
69917;SDS011;57203;42.672;23.334;2024-01-16T00:32:41;14.7;;;8.7;;
69917;SDS011;57203;42.672;23.334;2024-01-16T00:33:42;16.1;;;9.5;;
69917;SDS011;57203;42.672;23.334;2024-01-16T00:34:42;16.1;;;9.8;;
69917;SDS011;57203;42.672;23.334;2024-01-16T00:35:42;16.5;;;10.0;;
69917;SDS011;57203;42.672;23.334;2024-01-16T00:36:42;14.6;;;9.7;;
69917;SDS011;57203;42.672;23.334;2024-01-16T00:37:42;14.3;;;11.1;;
69917;SDS011;57203;42.672;23.334;2024-01-16T00:38:42;17.5;;;10.3;;
69917;SDS011;57203;42.672;23.334;2024-01-16T00:39:43;16.8;;;9.6;;
69917;SDS011;57203;42.672;23.334;2024-01-16T00:41:43;15.2;;;11.5;;
69917;SDS011;57203;42.672;23.334;2024-01-16T00:42:43;19.8;;;10.7;;
69917;SDS011;57203;42.672;23.334;2024-01-16T00:43:43;17.5;;;11.2;;
69917;SDS011;57203;42.672;23.334;2024-01-16T00:44:43;18.0;;;11.1;;
69917;SDS011;57203;42.672;23.334;2024-01-16T00:45:44;18.0;;;11.4;;
69917;SDS011;57203;42.672;23.334;2024-01-16T00:46:44;20.7;;;12.0;;
69917;SDS011;57203;42.672;23.334;2024-01-16T00:47:44;19.5;;;11.6;;
69917;SDS011;57203;42.672;23.334;2024-01-16T00:48:44;18.6;;;13.0;;
69917;SDS011;57203;42.672;23.334;2024-01-16T00:49:44;19.4;;;11.6;;
69917;SDS011;57203;42.672;23.334;2024-01-16T00:50:44;18.1;;;14.6;;
69917;SDS011;57203;42.672;23.334;2024-01-16T00:51:44;25.2;;;11.7;;
69917;SDS011;57203;42.672;23.334;2024-01-16T00:53:45;18.1;;;11.3;;
69917;SDS011;57203;42.672;23.334;2024-01-16T00:54:45;18.6;;;10.7;;
69917;SDS011;57203;42.672;23.334;2024-01-16T00:55:45;18.3;;;8.4;;
69917;SDS011;57203;42.672;23.334;2024-01-16T00:56:45;14.8;;;9.6;;
69917;SDS011;57203;42.672;23.334;2024-01-16T00:57:45;17.2;;;9.5;;
69917;SDS011;57203;42.672;23.334;2024-01-16T00:58:46;15.7;;;9.7;;
69917;SDS011;57203;42.672;23.334;2024-01-16T00:59:46;15.7;;;9.8;;
69917;SDS011;57203;42.672;23.334;2024-01-16T01:00:46;17.6;;;10.6;;
69917;SDS011;57203;42.672;23.334;2024-01-16T01:01:46;17.6;;;10.2;;
69917;SDS011;57203;42.672;23.334;2024-01-16T01:02:46;15.9;;;12.6;;
69917;SDS011;57203;42.672;23.334;2024-01-16T01:03:46;22.1;;;11.6;;
69917;SDS011;57203;42.672;23.334;2024-01-16T01:04:47;17.1;;;10.9;;
69917;SDS011;57203;42.672;23.334;2024-01-16T01:05:47;17.1;;;11.8;;
69917;SDS011;57203;42.672;23.334;2024-01-16T01:06:47;18.5;;;11.3;;
69917;SDS011;57203;42.672;23.334;2024-01-16T01:07:47;16.9;;;11.1;;
69917;SDS011;57203;42.672;23.334;2024-01-16T01:08:47;16.9;;;11.2;;
69917;SDS011;57203;42.672;23.334;2024-01-16T01:09:47;19.1;;;13.1;;
69917;SDS011;57203;42.672;23.334;2024-01-16T01:10:47;26.5;;;12.4;;
69917;SDS011;57203;42.672;23.334;2024-01-16T01:11:48;17.2;;;11.6;;
69917;SDS011;57203;42.672;23.334;2024-01-16T01:12:48;17.2;;;11.2;;
69917;SDS011;57203;42.672;23.334;2024-01-16T01:13:48;19.0;;;10.5;;
69917;SDS011;57203;42.672;23.334;2024-01-16T01:14:48;15.0;;;10.0;;
69917;SDS011;57203;42.672;23.334;2024-01-16T01:15:48;15.0;;;10.4;;
69917;SDS011;57203;42.672;23.334;2024-01-16T01:16:48;17.4;;;10.3;;
69917;SDS011;57203;42.672;23.334;2024-01-16T01:17:49;17.4;;;14.3;;
69917;SDS011;57203;42.672;23.334;2024-01-16T01:18:49;22.4;;;12.8;;
69917;SDS011;57203;42.672;23.334;2024-01-16T01:19:49;22.4;;;10.2;;
69917;SDS011;57203;42.672;23.334;2024-01-16T01:20:49;17.2;;;10.8;;
69917;SDS011;57203;42.672;23.334;2024-01-16T01:21:49;18.0;;;10.9;;
69917;SDS011;57203;42.672;23.334;2024-01-16T01:22:49;16.6;;;10.6;;
69917;SDS011;57203;42.672;23.334;2024-01-16T01:24:50;15.8;;;11.6;;
69917;SDS011;57203;42.672;23.334;2024-01-16T01:25:51;17.6;;;11.8;;
69917;SDS011;57203;42.672;23.334;2024-01-16T01:26:50;19.0;;;29.3;;
69917;SDS011;57203;42.672;23.334;2024-01-16T01:27:50;109.0;;;42.1;;
69917;SDS011;57203;42.672;23.334;2024-01-16T01:28:50;109.0;;;14.0;;
69917;SDS011;57203;42.672;23.334;2024-01-16T01:29:50;25.3;;;11.7;;
69917;SDS011;57203;42.672;23.334;2024-01-16T01:30:51;19.1;;;38.8;;
69917;SDS011;57203;42.672;23.334;2024-01-16T01:31:51;96.1;;;19.8;;
69917;SDS011;57203;42.672;23.334;2024-01-16T01:32:51;40.6;;;11.3;;
69917;SDS011;57203;42.672;23.334;2024-01-16T01:33:51;88.7;;;35.8;;
69917;SDS011;57203;42.672;23.334;2024-01-16T01:34:51;88.7;;;67.2;;
69917;SDS011;57203;42.672;23.334;2024-01-16T01:35:51;160.5;;;50.0;;
69917;SDS011;57203;42.672;23.334;2024-01-16T01:36:52;114.2;;;21.7;;
69917;SDS011;57203;42.672;23.334;2024-01-16T01:37:52;28.2;;;14.6;;
69917;SDS011;57203;42.672;23.334;2024-01-16T01:38:52;28.2;;;18.7;;
69917;SDS011;57203;42.672;23.334;2024-01-16T01:39:52;22.3;;;12.5;;
69917;SDS011;57203;42.672;23.334;2024-01-16T01:40:52;22.3;;;18.6;;
69917;SDS011;57203;42.672;23.334;2024-01-16T01:41:52;34.9;;;15.5;;
69917;SDS011;57203;42.672;23.334;2024-01-16T01:42:53;27.8;;;9.5;;
69917;SDS011;57203;42.672;23.334;2024-01-16T01:43:53;16.0;;;11.5;;
69917;SDS011;57203;42.672;23.334;2024-01-16T01:44:53;20.0;;;10.7;;
69917;SDS011;57203;42.672;23.334;2024-01-16T01:45:57;16.0;;;10.2;;
69917;SDS011;57203;42.672;23.334;2024-01-16T01:46:54;16.1;;;9.6;;
69917;SDS011;57203;42.672;23.334;2024-01-16T01:47:53;16.8;;;10.8;;
69917;SDS011;57203;42.672;23.334;2024-01-16T01:48:53;16.9;;;11.2;;
69917;SDS011;57203;42.672;23.334;2024-01-16T01:49:54;18.3;;;9.7;;
69917;SDS011;57203;42.672;23.334;2024-01-16T01:50:54;14.1;;;10.1;;
69917;SDS011;57203;42.672;23.334;2024-01-16T01:51:54;14.6;;;9.7;;
69917;SDS011;57203;42.672;23.334;2024-01-16T01:52:54;14.6;;;9.3;;
69917;SDS011;57203;42.672;23.334;2024-01-16T01:53:54;14.8;;;11.4;;
69917;SDS011;57203;42.672;23.334;2024-01-16T01:54:54;16.8;;;9.9;;
69917;SDS011;57203;42.672;23.334;2024-01-16T01:55:55;16.7;;;10.1;;
69917;SDS011;57203;42.672;23.334;2024-01-16T01:56:55;16.7;;;9.9;;
69917;SDS011;57203;42.672;23.334;2024-01-16T01:57:55;17.1;;;9.8;;
69917;SDS011;57203;42.672;23.334;2024-01-16T01:58:56;15.8;;;9.4;;
69917;SDS011;57203;42.672;23.334;2024-01-16T01:59:55;15.1;;;9.8;;
69917;SDS011;57203;42.672;23.334;2024-01-16T02:00:55;15.1;;;9.3;;
69917;SDS011;57203;42.672;23.334;2024-01-16T02:01:56;13.8;;;10.0;;
69917;SDS011;57203;42.672;23.334;2024-01-16T02:02:56;14.7;;;9.9;;
69917;SDS011;57203;42.672;23.334;2024-01-16T02:03:56;16.0;;;9.2;;
69917;SDS011;57203;42.672;23.334;2024-01-16T02:04:56;16.0;;;8.1;;
69917;SDS011;57203;42.672;23.334;2024-01-16T02:05:56;12.5;;;9.2;;
69917;SDS011;57203;42.672;23.334;2024-01-16T02:06:56;14.5;;;9.0;;
69917;SDS011;57203;42.672;23.334;2024-01-16T02:07:56;14.6;;;8.2;;
69917;SDS011;57203;42.672;23.334;2024-01-16T02:08:57;11.5;;;8.0;;
69917;SDS011;57203;42.672;23.334;2024-01-16T02:09:57;13.2;;;8.7;;
69917;SDS011;57203;42.672;23.334;2024-01-16T02:10:57;13.9;;;9.4;;
69917;SDS011;57203;42.672;23.334;2024-01-16T02:11:57;13.7;;;8.8;;
69917;SDS011;57203;42.672;23.334;2024-01-16T02:12:57;13.7;;;7.6;;
69917;SDS011;57203;42.672;23.334;2024-01-16T02:13:57;13.0;;;8.4;;
69917;SDS011;57203;42.672;23.334;2024-01-16T02:15:58;12.4;;;9.8;;
69917;SDS011;57203;42.672;23.334;2024-01-16T02:16:58;14.0;;;9.1;;
69917;SDS011;57203;42.672;23.334;2024-01-16T02:17:58;13.5;;;9.4;;
69917;SDS011;57203;42.672;23.334;2024-01-16T02:18:58;12.8;;;8.6;;
69917;SDS011;57203;42.672;23.334;2024-01-16T02:19:58;12.8;;;7.7;;
69917;SDS011;57203;42.672;23.334;2024-01-16T02:22:59;11.7;;;8.4;;
69917;SDS011;57203;42.672;23.334;2024-01-16T02:23:59;13.9;;;7.9;;
69917;SDS011;57203;42.672;23.334;2024-01-16T02:24:59;12.3;;;8.8;;
69917;SDS011;57203;42.672;23.334;2024-01-16T02:25:59;13.3;;;8.5;;
69917;SDS011;57203;42.672;23.334;2024-01-16T02:27:00;13.3;;;7.7;;
69917;SDS011;57203;42.672;23.334;2024-01-16T02:28:00;12.4;;;8.7;;
69917;SDS011;57203;42.672;23.334;2024-01-16T02:29:00;13.3;;;8.1;;
69917;SDS011;57203;42.672;23.334;2024-01-16T02:30:00;12.9;;;8.2;;
69917;SDS011;57203;42.672;23.334;2024-01-16T02:32:00;12.3;;;7.4;;
69917;SDS011;57203;42.672;23.334;2024-01-16T02:33:00;12.6;;;7.6;;
69917;SDS011;57203;42.672;23.334;2024-01-16T02:34:01;10.3;;;7.4;;
69917;SDS011;57203;42.672;23.334;2024-01-16T02:35:01;11.5;;;7.1;;
69917;SDS011;57203;42.672;23.334;2024-01-16T02:36:01;11.5;;;6.9;;
69917;SDS011;57203;42.672;23.334;2024-01-16T02:37:01;10.1;;;6.4;;
69917;SDS011;57203;42.672;23.334;2024-01-16T02:38:01;10.1;;;6.7;;
69917;SDS011;57203;42.672;23.334;2024-01-16T02:39:01;9.5;;;7.0;;
69917;SDS011;57203;42.672;23.334;2024-01-16T02:40:02;11.5;;;6.7;;
69917;SDS011;57203;42.672;23.334;2024-01-16T02:41:02;10.5;;;7.2;;
69917;SDS011;57203;42.672;23.334;2024-01-16T02:42:02;11.6;;;7.8;;
69917;SDS011;57203;42.672;23.334;2024-01-16T02:43:02;11.6;;;7.0;;
69917;SDS011;57203;42.672;23.334;2024-01-16T02:44:02;11.9;;;6.6;;
69917;SDS011;57203;42.672;23.334;2024-01-16T02:45:03;9.7;;;7.3;;
69917;SDS011;57203;42.672;23.334;2024-01-16T02:46:03;11.2;;;7.9;;
69917;SDS011;57203;42.672;23.334;2024-01-16T02:47:03;10.9;;;7.8;;
69917;SDS011;57203;42.672;23.334;2024-01-16T02:48:03;11.0;;;7.9;;
69917;SDS011;57203;42.672;23.334;2024-01-16T02:49:03;12.6;;;8.3;;
69917;SDS011;57203;42.672;23.334;2024-01-16T02:51:04;11.3;;;8.2;;
69917;SDS011;57203;42.672;23.334;2024-01-16T02:52:04;12.1;;;7.3;;
69917;SDS011;57203;42.672;23.334;2024-01-16T02:53:04;10.8;;;7.7;;
69917;SDS011;57203;42.672;23.334;2024-01-16T02:54:05;11.4;;;8.0;;
69917;SDS011;57203;42.672;23.334;2024-01-16T02:55:04;11.0;;;7.8;;
69917;SDS011;57203;42.672;23.334;2024-01-16T02:56:04;11.0;;;8.5;;
69917;SDS011;57203;42.672;23.334;2024-01-16T02:57:04;12.6;;;8.0;;
69917;SDS011;57203;42.672;23.334;2024-01-16T02:58:04;13.2;;;7.4;;
69917;SDS011;57203;42.672;23.334;2024-01-16T02:59:05;11.6;;;8.3;;
69917;SDS011;57203;42.672;23.334;2024-01-16T03:00:06;12.5;;;8.2;;
69917;SDS011;57203;42.672;23.334;2024-01-16T03:01:05;12.5;;;7.8;;
69917;SDS011;57203;42.672;23.334;2024-01-16T03:02:05;12.3;;;8.5;;
69917;SDS011;57203;42.672;23.334;2024-01-16T03:03:05;14.2;;;9.8;;
69917;SDS011;57203;42.672;23.334;2024-01-16T03:04:05;14.3;;;9.7;;
69917;SDS011;57203;42.672;23.334;2024-01-16T03:05:06;14.1;;;9.3;;
69917;SDS011;57203;42.672;23.334;2024-01-16T03:06:06;12.4;;;9.6;;
69917;SDS011;57203;42.672;23.334;2024-01-16T03:07:06;14.8;;;8.9;;
69917;SDS011;57203;42.672;23.334;2024-01-16T03:08:06;14.8;;;13.3;;
69917;SDS011;57203;42.672;23.334;2024-01-16T03:09:06;20.8;;;11.6;;
69917;SDS011;57203;42.672;23.334;2024-01-16T03:10:07;20.8;;;13.2;;
69917;SDS011;57203;42.672;23.334;2024-01-16T03:11:07;17.7;;;10.4;;
69917;SDS011;57203;42.672;23.334;2024-01-16T03:12:07;17.7;;;11.2;;
69917;SDS011;57203;42.672;23.334;2024-01-16T03:14:07;16.2;;;9.3;;
69917;SDS011;57203;42.672;23.334;2024-01-16T03:15:07;13.9;;;9.8;;
69917;SDS011;57203;42.672;23.334;2024-01-16T03:16:08;17.1;;;10.3;;
69917;SDS011;57203;42.672;23.334;2024-01-16T03:17:07;16.1;;;8.1;;
69917;SDS011;57203;42.672;23.334;2024-01-16T03:18:08;12.4;;;7.2;;
69917;SDS011;57203;42.672;23.334;2024-01-16T03:19:08;10.3;;;8.2;;
69917;SDS011;57203;42.672;23.334;2024-01-16T03:20:08;11.2;;;8.3;;
69917;SDS011;57203;42.672;23.334;2024-01-16T03:21:08;10.1;;;7.1;;
69917;SDS011;57203;42.672;23.334;2024-01-16T03:22:08;10.1;;;5.9;;
69917;SDS011;57203;42.672;23.334;2024-01-16T03:23:08;9.3;;;6.4;;
69917;SDS011;57203;42.672;23.334;2024-01-16T03:24:09;9.7;;;7.0;;
69917;SDS011;57203;42.672;23.334;2024-01-16T03:25:09;10.5;;;6.4;;
69917;SDS011;57203;42.672;23.334;2024-01-16T03:27:09;10.7;;;7.2;;
69917;SDS011;57203;42.672;23.334;2024-01-16T03:28:09;9.8;;;6.8;;
69917;SDS011;57203;42.672;23.334;2024-01-16T03:29:09;9.2;;;6.5;;
69917;SDS011;57203;42.672;23.334;2024-01-16T03:30:10;9.3;;;5.8;;
69917;SDS011;57203;42.672;23.334;2024-01-16T03:31:10;7.7;;;4.4;;
69917;SDS011;57203;42.672;23.334;2024-01-16T03:33:10;5.4;;;5.0;;
69917;SDS011;57203;42.672;23.334;2024-01-16T03:34:10;7.6;;;4.2;;
69917;SDS011;57203;42.672;23.334;2024-01-16T03:37:11;5.7;;;3.4;;
69917;SDS011;57203;42.672;23.334;2024-01-16T03:38:11;4.6;;;4.5;;
69917;SDS011;57203;42.672;23.334;2024-01-16T03:39:11;5.0;;;3.6;;
69917;SDS011;57203;42.672;23.334;2024-01-16T03:40:11;4.0;;;4.6;;
69917;SDS011;57203;42.672;23.334;2024-01-16T03:41:11;5.7;;;4.7;;
69917;SDS011;57203;42.672;23.334;2024-01-16T03:42:12;6.7;;;3.8;;
69917;SDS011;57203;42.672;23.334;2024-01-16T03:43:12;4.6;;;4.2;;
69917;SDS011;57203;42.672;23.334;2024-01-16T03:44:12;4.3;;;3.8;;
69917;SDS011;57203;42.672;23.334;2024-01-16T03:45:12;4.3;;;4.2;;
69917;SDS011;57203;42.672;23.334;2024-01-16T03:46:12;5.3;;;4.6;;
69917;SDS011;57203;42.672;23.334;2024-01-16T03:47:12;5.2;;;4.7;;
69917;SDS011;57203;42.672;23.334;2024-01-16T03:48:13;6.8;;;4.4;;
69917;SDS011;57203;42.672;23.334;2024-01-16T03:49:13;5.5;;;3.8;;
69917;SDS011;57203;42.672;23.334;2024-01-16T03:50:13;5.4;;;2.9;;
69917;SDS011;57203;42.672;23.334;2024-01-16T03:51:13;4.7;;;4.2;;
69917;SDS011;57203;42.672;23.334;2024-01-16T03:52:13;4.7;;;4.3;;
69917;SDS011;57203;42.672;23.334;2024-01-16T03:53:13;5.1;;;3.3;;
69917;SDS011;57203;42.672;23.334;2024-01-16T03:54:14;3.8;;;3.4;;
69917;SDS011;57203;42.672;23.334;2024-01-16T03:56:14;4.3;;;3.9;;
69917;SDS011;57203;42.672;23.334;2024-01-16T03:57:14;4.7;;;2.8;;
69917;SDS011;57203;42.672;23.334;2024-01-16T03:59:14;3.4;;;3.5;;
69917;SDS011;57203;42.672;23.334;2024-01-16T04:00:15;4.6;;;3.3;;
69917;SDS011;57203;42.672;23.334;2024-01-16T04:01:15;4.7;;;3.9;;
69917;SDS011;57203;42.672;23.334;2024-01-16T04:02:15;4.7;;;3.8;;
69917;SDS011;57203;42.672;23.334;2024-01-16T04:03:15;4.3;;;3.2;;
69917;SDS011;57203;42.672;23.334;2024-01-16T04:04:15;4.2;;;3.7;;
69917;SDS011;57203;42.672;23.334;2024-01-16T04:05:15;4.3;;;3.3;;
69917;SDS011;57203;42.672;23.334;2024-01-16T04:06:16;3.5;;;3.1;;
69917;SDS011;57203;42.672;23.334;2024-01-16T04:07:16;3.5;;;3.6;;
69917;SDS011;57203;42.672;23.334;2024-01-16T04:08:16;4.2;;;3.3;;
69917;SDS011;57203;42.672;23.334;2024-01-16T04:09:16;3.7;;;2.9;;
69917;SDS011;57203;42.672;23.334;2024-01-16T04:10:16;4.0;;;3.4;;
69917;SDS011;57203;42.672;23.334;2024-01-16T04:11:16;3.6;;;3.2;;
69917;SDS011;57203;42.672;23.334;2024-01-16T04:12:16;3.6;;;2.9;;
69917;SDS011;57203;42.672;23.334;2024-01-16T04:13:17;3.2;;;3.0;;
69917;SDS011;57203;42.672;23.334;2024-01-16T04:14:17;3.3;;;3.3;;
69917;SDS011;57203;42.672;23.334;2024-01-16T04:15:17;4.3;;;2.8;;
69917;SDS011;57203;42.672;23.334;2024-01-16T04:17:17;3.4;;;3.2;;
69917;SDS011;57203;42.672;23.334;2024-01-16T04:18:17;3.6;;;2.5;;
69917;SDS011;57203;42.672;23.334;2024-01-16T04:19:17;3.0;;;2.6;;
69917;SDS011;57203;42.672;23.334;2024-01-16T04:21:18;3.1;;;2.5;;
69917;SDS011;57203;42.672;23.334;2024-01-16T04:22:18;2.8;;;2.4;;
69917;SDS011;57203;42.672;23.334;2024-01-16T04:23:18;2.8;;;2.3;;
69917;SDS011;57203;42.672;23.334;2024-01-16T04:24:18;2.5;;;2.1;;
69917;SDS011;57203;42.672;23.334;2024-01-16T04:25:18;2.4;;;2.5;;
69917;SDS011;57203;42.672;23.334;2024-01-16T04:26:19;3.0;;;2.6;;
69917;SDS011;57203;42.672;23.334;2024-01-16T04:27:19;3.1;;;2.5;;
69917;SDS011;57203;42.672;23.334;2024-01-16T04:30:19;2.9;;;2.6;;
69917;SDS011;57203;42.672;23.334;2024-01-16T04:31:19;2.6;;;2.4;;
69917;SDS011;57203;42.672;23.334;2024-01-16T04:32:19;2.6;;;2.3;;
69917;SDS011;57203;42.672;23.334;2024-01-16T04:33:20;2.7;;;2.1;;
69917;SDS011;57203;42.672;23.334;2024-01-16T04:34:20;2.3;;;2.4;;
69917;SDS011;57203;42.672;23.334;2024-01-16T04:35:20;2.6;;;2.1;;
69917;SDS011;57203;42.672;23.334;2024-01-16T04:37:20;2.3;;;2.0;;
69917;SDS011;57203;42.672;23.334;2024-01-16T04:38:20;2.2;;;2.3;;
69917;SDS011;57203;42.672;23.334;2024-01-16T04:39:21;2.5;;;1.9;;
69917;SDS011;57203;42.672;23.334;2024-01-16T04:40:21;2.6;;;2.0;;
69917;SDS011;57203;42.672;23.334;2024-01-16T04:42:21;2.6;;;2.3;;
69917;SDS011;57203;42.672;23.334;2024-01-16T04:43:21;2.6;;;1.8;;
69917;SDS011;57203;42.672;23.334;2024-01-16T04:44:21;2.2;;;2.3;;
69917;SDS011;57203;42.672;23.334;2024-01-16T04:45:22;2.6;;;2.1;;
69917;SDS011;57203;42.672;23.334;2024-01-16T04:46:22;2.5;;;2.2;;
69917;SDS011;57203;42.672;23.334;2024-01-16T04:47:22;2.4;;;2.1;;
69917;SDS011;57203;42.672;23.334;2024-01-16T04:48:22;2.6;;;2.4;;
69917;SDS011;57203;42.672;23.334;2024-01-16T04:49:22;2.6;;;2.1;;
69917;SDS011;57203;42.672;23.334;2024-01-16T04:50:22;2.6;;;1.9;;
69917;SDS011;57203;42.672;23.334;2024-01-16T04:51:22;2.2;;;2.3;;
69917;SDS011;57203;42.672;23.334;2024-01-16T04:52:23;2.5;;;2.2;;
69917;SDS011;57203;42.672;23.334;2024-01-16T04:54:23;2.9;;;1.9;;
69917;SDS011;57203;42.672;23.334;2024-01-16T04:56:23;2.5;;;2.1;;
69917;SDS011;57203;42.672;23.334;2024-01-16T04:57:23;2.5;;;1.9;;
69917;SDS011;57203;42.672;23.334;2024-01-16T04:58:24;2.3;;;2.0;;
69917;SDS011;57203;42.672;23.334;2024-01-16T04:59:24;2.4;;;1.8;;
69917;SDS011;57203;42.672;23.334;2024-01-16T05:00:24;2.0;;;2.0;;
69917;SDS011;57203;42.672;23.334;2024-01-16T05:01:24;2.8;;;1.9;;
69917;SDS011;57203;42.672;23.334;2024-01-16T05:03:24;2.2;;;1.8;;
69917;SDS011;57203;42.672;23.334;2024-01-16T05:04:25;2.3;;;2.1;;
69917;SDS011;57203;42.672;23.334;2024-01-16T05:05:25;2.3;;;2.0;;
69917;SDS011;57203;42.672;23.334;2024-01-16T05:06:25;2.9;;;1.8;;
69917;SDS011;57203;42.672;23.334;2024-01-16T05:08:26;2.1;;;1.6;;
69917;SDS011;57203;42.672;23.334;2024-01-16T05:09:25;2.2;;;1.8;;
69917;SDS011;57203;42.672;23.334;2024-01-16T05:10:25;2.1;;;1.9;;
69917;SDS011;57203;42.672;23.334;2024-01-16T05:11:26;2.1;;;2.1;;
69917;SDS011;57203;42.672;23.334;2024-01-16T05:12:26;2.9;;;1.9;;
69917;SDS011;57203;42.672;23.334;2024-01-16T05:13:26;2.2;;;1.6;;
69917;SDS011;57203;42.672;23.334;2024-01-16T05:14:26;2.0;;;1.8;;
69917;SDS011;57203;42.672;23.334;2024-01-16T05:17:27;2.1;;;2.0;;
69917;SDS011;57203;42.672;23.334;2024-01-16T05:18:27;2.3;;;1.6;;
69917;SDS011;57203;42.672;23.334;2024-01-16T05:19:27;2.2;;;1.8;;
69917;SDS011;57203;42.672;23.334;2024-01-16T05:20:27;2.2;;;1.6;;
69917;SDS011;57203;42.672;23.334;2024-01-16T05:21:27;1.9;;;1.4;;
69917;SDS011;57203;42.672;23.334;2024-01-16T05:22:27;1.9;;;1.8;;
69917;SDS011;57203;42.672;23.334;2024-01-16T05:23:28;2.0;;;2.0;;
69917;SDS011;57203;42.672;23.334;2024-01-16T05:24:28;2.2;;;1.8;;
69917;SDS011;57203;42.672;23.334;2024-01-16T05:26:28;2.0;;;1.7;;
69917;SDS011;57203;42.672;23.334;2024-01-16T05:27:28;2.1;;;1.8;;
69917;SDS011;57203;42.672;23.334;2024-01-16T05:28:28;2.4;;;1.2;;
69917;SDS011;57203;42.672;23.334;2024-01-16T05:29:29;2.3;;;1.6;;
69917;SDS011;57203;42.672;23.334;2024-01-16T05:30:29;1.9;;;1.7;;
69917;SDS011;57203;42.672;23.334;2024-01-16T05:32:29;2.0;;;1.9;;
69917;SDS011;57203;42.672;23.334;2024-01-16T05:33:29;2.6;;;1.3;;
69917;SDS011;57203;42.672;23.334;2024-01-16T05:34:29;1.4;;;1.6;;
69917;SDS011;57203;42.672;23.334;2024-01-16T05:36:30;2.0;;;1.5;;
69917;SDS011;57203;42.672;23.334;2024-01-16T05:38:30;1.8;;;1.6;;
69917;SDS011;57203;42.672;23.334;2024-01-16T05:39:30;1.7;;;1.5;;
69917;SDS011;57203;42.672;23.334;2024-01-16T05:40:30;1.7;;;1.4;;
69917;SDS011;57203;42.672;23.334;2024-01-16T05:42:31;1.7;;;1.5;;
69917;SDS011;57203;42.672;23.334;2024-01-16T05:43:31;2.2;;;1.4;;
69917;SDS011;57203;42.672;23.334;2024-01-16T05:44:31;1.5;;;1.6;;
69917;SDS011;57203;42.672;23.334;2024-01-16T05:45:31;2.2;;;1.9;;
69917;SDS011;57203;42.672;23.334;2024-01-16T05:46:31;3.2;;;1.7;;
69917;SDS011;57203;42.672;23.334;2024-01-16T05:47:31;2.1;;;1.4;;
69917;SDS011;57203;42.672;23.334;2024-01-16T05:48:32;1.7;;;1.6;;
69917;SDS011;57203;42.672;23.334;2024-01-16T05:50:32;2.7;;;1.8;;
69917;SDS011;57203;42.672;23.334;2024-01-16T05:51:32;1.9;;;1.4;;
69917;SDS011;57203;42.672;23.334;2024-01-16T05:55:33;1.8;;;1.3;;
69917;SDS011;57203;42.672;23.334;2024-01-16T05:57:33;1.9;;;1.2;;
69917;SDS011;57203;42.672;23.334;2024-01-16T05:58:33;1.6;;;1.1;;
69917;SDS011;57203;42.672;23.334;2024-01-16T05:59:33;2.0;;;1.2;;
69917;SDS011;57203;42.672;23.334;2024-01-16T06:00:33;1.4;;;1.6;;
69917;SDS011;57203;42.672;23.334;2024-01-16T06:01:34;1.9;;;1.7;;
69917;SDS011;57203;42.672;23.334;2024-01-16T06:03:34;2.8;;;1.5;;
69917;SDS011;57203;42.672;23.334;2024-01-16T06:04:34;1.8;;;1.7;;
69917;SDS011;57203;42.672;23.334;2024-01-16T06:05:34;2.0;;;1.6;;
69917;SDS011;57203;42.672;23.334;2024-01-16T06:06:34;2.0;;;1.4;;
69917;SDS011;57203;42.672;23.334;2024-01-16T06:07:35;2.2;;;1.8;;
69917;SDS011;57203;42.672;23.334;2024-01-16T06:08:35;1.9;;;1.5;;
69917;SDS011;57203;42.672;23.334;2024-01-16T06:09:37;1.9;;;1.7;;
69917;SDS011;57203;42.672;23.334;2024-01-16T06:10:35;2.5;;;2.1;;
69917;SDS011;57203;42.672;23.334;2024-01-16T06:11:35;2.1;;;1.6;;
69917;SDS011;57203;42.672;23.334;2024-01-16T06:12:35;1.7;;;1.5;;
69917;SDS011;57203;42.672;23.334;2024-01-16T06:13:35;1.7;;;2.0;;
69917;SDS011;57203;42.672;23.334;2024-01-16T06:14:36;2.6;;;1.5;;
69917;SDS011;57203;42.672;23.334;2024-01-16T06:15:36;2.1;;;1.7;;
69917;SDS011;57203;42.672;23.334;2024-01-16T06:16:36;2.1;;;1.6;;
69917;SDS011;57203;42.672;23.334;2024-01-16T06:17:36;2.0;;;1.7;;
69917;SDS011;57203;42.672;23.334;2024-01-16T06:19:37;2.3;;;1.8;;
69917;SDS011;57203;42.672;23.334;2024-01-16T06:20:37;2.3;;;2.0;;
69917;SDS011;57203;42.672;23.334;2024-01-16T06:22:37;2.4;;;1.9;;
69917;SDS011;57203;42.672;23.334;2024-01-16T06:23:37;2.9;;;2.0;;
69917;SDS011;57203;42.672;23.334;2024-01-16T06:24:37;2.9;;;1.8;;
69917;SDS011;57203;42.672;23.334;2024-01-16T06:25:37;2.0;;;1.9;;
69917;SDS011;57203;42.672;23.334;2024-01-16T06:26:37;2.3;;;1.8;;
69917;SDS011;57203;42.672;23.334;2024-01-16T06:27:38;2.2;;;1.5;;
69917;SDS011;57203;42.672;23.334;2024-01-16T06:28:38;2.1;;;1.9;;
69917;SDS011;57203;42.672;23.334;2024-01-16T06:29:38;2.4;;;2.0;;
69917;SDS011;57203;42.672;23.334;2024-01-16T06:30:38;2.5;;;2.2;;
69917;SDS011;57203;42.672;23.334;2024-01-16T06:31:38;2.5;;;1.3;;
69917;SDS011;57203;42.672;23.334;2024-01-16T06:32:38;1.6;;;1.7;;
69917;SDS011;57203;42.672;23.334;2024-01-16T06:33:39;3.2;;;1.9;;
69917;SDS011;57203;42.672;23.334;2024-01-16T06:34:39;2.8;;;1.8;;
69917;SDS011;57203;42.672;23.334;2024-01-16T06:35:39;2.7;;;1.7;;
69917;SDS011;57203;42.672;23.334;2024-01-16T06:36:39;1.9;;;1.4;;
69917;SDS011;57203;42.672;23.334;2024-01-16T06:37:39;1.6;;;1.8;;
69917;SDS011;57203;42.672;23.334;2024-01-16T06:38:39;2.2;;;2.0;;
69917;SDS011;57203;42.672;23.334;2024-01-16T06:39:40;2.4;;;1.9;;
69917;SDS011;57203;42.672;23.334;2024-01-16T06:40:40;2.1;;;1.7;;
69917;SDS011;57203;42.672;23.334;2024-01-16T06:41:40;3.4;;;1.6;;
69917;SDS011;57203;42.672;23.334;2024-01-16T06:42:40;2.1;;;1.7;;
69917;SDS011;57203;42.672;23.334;2024-01-16T06:43:40;2.1;;;1.8;;
69917;SDS011;57203;42.672;23.334;2024-01-16T06:45:41;1.8;;;1.3;;
69917;SDS011;57203;42.672;23.334;2024-01-16T06:46:41;1.8;;;1.5;;
69917;SDS011;57203;42.672;23.334;2024-01-16T06:47:41;1.8;;;1.4;;
69917;SDS011;57203;42.672;23.334;2024-01-16T06:48:41;1.8;;;1.5;;
69917;SDS011;57203;42.672;23.334;2024-01-16T06:49:41;2.1;;;1.3;;